Main page
Satellite images 15-day forecastsClimateMarine weather Cyclones Lightning AirportsFAQ Newsletter About
Weather : Europe Africa North America South America Asia Australia-Oceania Others
Languages Contact

Bordeaux, France

Merignac

latitude: 44-50N, longitude: 000-42W, elevation: 49 m


METAR: LFBD 011800Z AUTO 34005KT 9999 NSC 21/12 Q1027
TAF: LFBD 011700Z 0118/0224 01005KT CAVOK PROB30 TEMPO 0203/0207 4000 MIFG

Time: 20:15 (18:15 UTC)

Current weather observation

The report was made 15 minutes ago, at 18:00 UTC  
Wind 05 kt from the North/Northwest
Temperature 21°C
Humidity 56%
Pressure 1027 hPa
Visibility 10 km or more

Change units

Forecast

The report was made 01 hour and 15 minutes ago, at 17:00 UTC  
Forecast valid from 01 at 18 UTC to 02 at 24 UTC
Wind 05 kt from the North
Visibility 10 km or more
no clouds below 1500 m and no cumulonimbus
Probability 30% :
Temporary
from 02 at 03 UTC to 02 at 07 UTC
Visibility 4000 m
shallow fog
The information on this site is subject to a disclaimer
Weather : Europe Africa North America South America Asia Australia-Oceania Others
Satellite images 15-day forecastsClimateMarine weather Cyclones Lightning AirportsFAQ Languages Contact Newsletter About